sensor_id;sensor_type;location;lat;lon;timestamp;P1;durP1;ratioP1;P2;durP2;ratioP2
52031;SDS011;38044;45.148;39.604;2023-01-25T00:02:16;22.25;;;11.75;;
52031;SDS011;38044;45.148;39.604;2023-01-25T00:04:42;25.75;;;13.18;;
52031;SDS011;38044;45.148;39.604;2023-01-25T00:07:08;24.33;;;12.63;;
52031;SDS011;38044;45.148;39.604;2023-01-25T00:09:34;25.10;;;13.32;;
52031;SDS011;38044;45.148;39.604;2023-01-25T00:12:00;25.60;;;14.23;;
52031;SDS011;38044;45.148;39.604;2023-01-25T00:14:25;26.17;;;13.57;;
52031;SDS011;38044;45.148;39.604;2023-01-25T00:16:51;23.08;;;11.73;;
52031;SDS011;38044;45.148;39.604;2023-01-25T00:19:17;25.83;;;12.93;;
52031;SDS011;38044;45.148;39.604;2023-01-25T00:21:43;26.63;;;13.90;;
52031;SDS011;38044;45.148;39.604;2023-01-25T00:24:09;28.50;;;13.05;;
52031;SDS011;38044;45.148;39.604;2023-01-25T00:26:36;25.80;;;12.90;;
52031;SDS011;38044;45.148;39.604;2023-01-25T00:29:03;24.15;;;12.63;;
52031;SDS011;38044;45.148;39.604;2023-01-25T00:34:05;25.50;;;13.32;;
52031;SDS011;38044;45.148;39.604;2023-01-25T00:36:40;26.40;;;13.32;;
52031;SDS011;38044;45.148;39.604;2023-01-25T00:39:09;26.73;;;12.88;;
52031;SDS011;38044;45.148;39.604;2023-01-25T00:41:37;24.98;;;13.35;;
52031;SDS011;38044;45.148;39.604;2023-01-25T00:44:03;28.10;;;13.80;;
52031;SDS011;38044;45.148;39.604;2023-01-25T00:46:29;29.23;;;14.20;;
52031;SDS011;38044;45.148;39.604;2023-01-25T00:48:55;27.50;;;13.38;;
52031;SDS011;38044;45.148;39.604;2023-01-25T00:51:22;26.52;;;13.32;;
52031;SDS011;38044;45.148;39.604;2023-01-25T00:53:48;25.02;;;14.15;;
52031;SDS011;38044;45.148;39.604;2023-01-25T00:56:14;26.30;;;13.13;;
52031;SDS011;38044;45.148;39.604;2023-01-25T00:58:40;28.45;;;14.65;;
52031;SDS011;38044;45.148;39.604;2023-01-25T01:01:07;26.75;;;13.98;;
52031;SDS011;38044;45.148;39.604;2023-01-25T01:03:33;29.98;;;14.75;;
52031;SDS011;38044;45.148;39.604;2023-01-25T01:06:03;29.40;;;13.43;;
52031;SDS011;38044;45.148;39.604;2023-01-25T01:08:34;28.00;;;15.05;;
52031;SDS011;38044;45.148;39.604;2023-01-25T01:11:03;30.05;;;14.73;;
52031;SDS011;38044;45.148;39.604;2023-01-25T01:13:31;30.85;;;15.38;;
52031;SDS011;38044;45.148;39.604;2023-01-25T01:15:58;28.05;;;14.30;;
52031;SDS011;38044;45.148;39.604;2023-01-25T01:18:57;29.75;;;14.38;;
52031;SDS011;38044;45.148;39.604;2023-01-25T01:21:23;29.33;;;14.40;;
52031;SDS011;38044;45.148;39.604;2023-01-25T01:23:49;28.33;;;14.05;;
52031;SDS011;38044;45.148;39.604;2023-01-25T01:26:16;27.75;;;14.30;;
52031;SDS011;38044;45.148;39.604;2023-01-25T01:28:46;33.63;;;16.17;;
52031;SDS011;38044;45.148;39.604;2023-01-25T01:31:13;28.73;;;16.17;;
52031;SDS011;38044;45.148;39.604;2023-01-25T01:33:44;32.85;;;16.30;;
52031;SDS011;38044;45.148;39.604;2023-01-25T01:36:15;27.17;;;14.95;;
52031;SDS011;38044;45.148;39.604;2023-01-25T01:38:41;29.42;;;15.15;;
52031;SDS011;38044;45.148;39.604;2023-01-25T01:41:07;30.67;;;14.75;;
52031;SDS011;38044;45.148;39.604;2023-01-25T01:43:34;29.58;;;14.52;;
52031;SDS011;38044;45.148;39.604;2023-01-25T01:46:04;28.13;;;15.30;;
52031;SDS011;38044;45.148;39.604;2023-01-25T01:48:40;33.10;;;16.95;;
52031;SDS011;38044;45.148;39.604;2023-01-25T01:54:08;27.90;;;16.45;;
52031;SDS011;38044;45.148;39.604;2023-01-25T01:56:50;30.75;;;16.95;;
52031;SDS011;38044;45.148;39.604;2023-01-25T01:59:42;31.92;;;17.23;;
52031;SDS011;38044;45.148;39.604;2023-01-25T02:02:13;30.85;;;15.95;;
52031;SDS011;38044;45.148;39.604;2023-01-25T02:04:40;32.55;;;17.00;;
52031;SDS011;38044;45.148;39.604;2023-01-25T02:09:55;35.13;;;16.80;;
52031;SDS011;38044;45.148;39.604;2023-01-25T02:12:22;32.70;;;16.83;;
52031;SDS011;38044;45.148;39.604;2023-01-25T02:14:50;31.13;;;17.10;;
52031;SDS011;38044;45.148;39.604;2023-01-25T02:17:18;36.33;;;18.10;;
52031;SDS011;38044;45.148;39.604;2023-01-25T02:19:53;28.55;;;16.02;;
52031;SDS011;38044;45.148;39.604;2023-01-25T02:22:39;29.15;;;16.08;;
52031;SDS011;38044;45.148;39.604;2023-01-25T02:25:30;34.88;;;16.73;;
52031;SDS011;38044;45.148;39.604;2023-01-25T02:28:06;33.80;;;16.92;;
52031;SDS011;38044;45.148;39.604;2023-01-25T02:30:38;33.13;;;16.87;;
52031;SDS011;38044;45.148;39.604;2023-01-25T02:33:05;41.08;;;17.33;;
52031;SDS011;38044;45.148;39.604;2023-01-25T02:35:39;34.72;;;16.42;;
52031;SDS011;38044;45.148;39.604;2023-01-25T02:38:13;31.25;;;17.08;;
52031;SDS011;38044;45.148;39.604;2023-01-25T02:40:51;33.28;;;17.25;;
52031;SDS011;38044;45.148;39.604;2023-01-25T02:43:31;37.08;;;18.38;;
52031;SDS011;38044;45.148;39.604;2023-01-25T02:45:59;36.25;;;17.30;;
52031;SDS011;38044;45.148;39.604;2023-01-25T02:48:35;36.67;;;17.25;;
52031;SDS011;38044;45.148;39.604;2023-01-25T02:51:01;30.90;;;16.33;;
52031;SDS011;38044;45.148;39.604;2023-01-25T02:53:30;32.75;;;17.45;;
52031;SDS011;38044;45.148;39.604;2023-01-25T02:55:56;29.65;;;16.88;;
52031;SDS011;38044;45.148;39.604;2023-01-25T02:58:22;35.80;;;16.40;;
52031;SDS011;38044;45.148;39.604;2023-01-25T03:00:47;32.50;;;16.17;;
52031;SDS011;38044;45.148;39.604;2023-01-25T03:03:13;34.92;;;16.85;;
52031;SDS011;38044;45.148;39.604;2023-01-25T03:05:39;46.22;;;18.67;;
52031;SDS011;38044;45.148;39.604;2023-01-25T03:08:05;50.22;;;19.48;;
52031;SDS011;38044;45.148;39.604;2023-01-25T03:10:30;54.92;;;19.23;;
52031;SDS011;38044;45.148;39.604;2023-01-25T03:12:56;63.22;;;23.30;;
52031;SDS011;38044;45.148;39.604;2023-01-25T03:15:22;155.85;;;35.22;;
52031;SDS011;38044;45.148;39.604;2023-01-25T03:17:48;90.55;;;24.00;;
52031;SDS011;38044;45.148;39.604;2023-01-25T03:20:14;99.60;;;25.50;;
52031;SDS011;38044;45.148;39.604;2023-01-25T03:22:39;70.68;;;22.05;;
52031;SDS011;38044;45.148;39.604;2023-01-25T03:25:05;74.22;;;23.15;;
52031;SDS011;38044;45.148;39.604;2023-01-25T03:27:32;58.28;;;21.10;;
52031;SDS011;38044;45.148;39.604;2023-01-25T03:29:58;53.85;;;21.30;;
52031;SDS011;38044;45.148;39.604;2023-01-25T03:32:23;41.67;;;21.10;;
52031;SDS011;38044;45.148;39.604;2023-01-25T03:34:49;46.47;;;22.38;;
52031;SDS011;38044;45.148;39.604;2023-01-25T03:37:15;54.33;;;22.58;;
52031;SDS011;38044;45.148;39.604;2023-01-25T03:39:41;48.50;;;23.60;;
52031;SDS011;38044;45.148;39.604;2023-01-25T03:42:07;68.15;;;26.67;;
52031;SDS011;38044;45.148;39.604;2023-01-25T03:44:32;65.30;;;25.55;;
52031;SDS011;38044;45.148;39.604;2023-01-25T03:46:58;109.07;;;27.65;;
52031;SDS011;38044;45.148;39.604;2023-01-25T03:49:24;129.50;;;29.17;;
52031;SDS011;38044;45.148;39.604;2023-01-25T03:51:52;76.25;;;25.98;;
52031;SDS011;38044;45.148;39.604;2023-01-25T03:54:18;85.45;;;25.15;;
52031;SDS011;38044;45.148;39.604;2023-01-25T03:56:44;81.55;;;27.70;;
52031;SDS011;38044;45.148;39.604;2023-01-25T03:59:10;107.45;;;27.75;;
52031;SDS011;38044;45.148;39.604;2023-01-25T04:01:36;113.32;;;28.33;;
52031;SDS011;38044;45.148;39.604;2023-01-25T04:04:02;106.35;;;26.63;;
52031;SDS011;38044;45.148;39.604;2023-01-25T04:06:28;101.60;;;26.38;;
52031;SDS011;38044;45.148;39.604;2023-01-25T04:08:54;105.38;;;27.25;;
52031;SDS011;38044;45.148;39.604;2023-01-25T04:11:20;130.68;;;29.50;;
52031;SDS011;38044;45.148;39.604;2023-01-25T04:13:46;88.00;;;27.05;;
52031;SDS011;38044;45.148;39.604;2023-01-25T04:16:11;134.20;;;29.85;;
52031;SDS011;38044;45.148;39.604;2023-01-25T04:18:37;98.93;;;29.00;;
52031;SDS011;38044;45.148;39.604;2023-01-25T04:21:04;113.80;;;27.83;;
52031;SDS011;38044;45.148;39.604;2023-01-25T04:23:31;126.45;;;28.55;;
52031;SDS011;38044;45.148;39.604;2023-01-25T04:28:23;129.45;;;28.33;;
52031;SDS011;38044;45.148;39.604;2023-01-25T04:30:50;130.55;;;29.27;;
52031;SDS011;38044;45.148;39.604;2023-01-25T04:33:17;150.68;;;29.45;;
52031;SDS011;38044;45.148;39.604;2023-01-25T04:35:43;126.70;;;29.05;;
52031;SDS011;38044;45.148;39.604;2023-01-25T04:38:10;179.25;;;33.58;;
52031;SDS011;38044;45.148;39.604;2023-01-25T04:40:36;188.90;;;31.27;;
52031;SDS011;38044;45.148;39.604;2023-01-25T04:43:03;168.43;;;32.70;;
52031;SDS011;38044;45.148;39.604;2023-01-25T04:45:31;117.07;;;31.50;;
52031;SDS011;38044;45.148;39.604;2023-01-25T04:47:58;203.40;;;32.40;;
52031;SDS011;38044;45.148;39.604;2023-01-25T04:50:25;135.98;;;30.45;;
52031;SDS011;38044;45.148;39.604;2023-01-25T04:52:51;179.32;;;37.67;;
52031;SDS011;38044;45.148;39.604;2023-01-25T04:55:17;186.77;;;35.05;;
52031;SDS011;38044;45.148;39.604;2023-01-25T04:57:44;201.57;;;36.10;;
52031;SDS011;38044;45.148;39.604;2023-01-25T05:00:10;166.77;;;33.72;;
52031;SDS011;38044;45.148;39.604;2023-01-25T05:02:36;170.43;;;34.10;;
52031;SDS011;38044;45.148;39.604;2023-01-25T05:05:03;168.32;;;34.70;;
52031;SDS011;38044;45.148;39.604;2023-01-25T05:07:30;126.68;;;32.97;;
52031;SDS011;38044;45.148;39.604;2023-01-25T05:09:55;121.18;;;32.25;;
52031;SDS011;38044;45.148;39.604;2023-01-25T05:12:21;117.40;;;34.10;;
52031;SDS011;38044;45.148;39.604;2023-01-25T05:14:47;203.98;;;33.90;;
52031;SDS011;38044;45.148;39.604;2023-01-25T05:17:13;166.73;;;33.92;;
52031;SDS011;38044;45.148;39.604;2023-01-25T05:19:38;107.32;;;31.77;;
52031;SDS011;38044;45.148;39.604;2023-01-25T05:22:04;145.98;;;32.70;;
52031;SDS011;38044;45.148;39.604;2023-01-25T05:24:33;164.65;;;34.25;;
52031;SDS011;38044;45.148;39.604;2023-01-25T05:26:59;132.98;;;32.03;;
52031;SDS011;38044;45.148;39.604;2023-01-25T05:29:30;126.55;;;33.55;;
52031;SDS011;38044;45.148;39.604;2023-01-25T05:32:01;147.35;;;34.45;;
52031;SDS011;38044;45.148;39.604;2023-01-25T05:34:28;173.52;;;36.40;;
52031;SDS011;38044;45.148;39.604;2023-01-25T05:36:54;151.20;;;34.55;;
52031;SDS011;38044;45.148;39.604;2023-01-25T05:39:20;178.60;;;35.67;;
52031;SDS011;38044;45.148;39.604;2023-01-25T05:41:46;162.93;;;35.58;;
52031;SDS011;38044;45.148;39.604;2023-01-25T05:44:12;213.07;;;36.75;;
52031;SDS011;38044;45.148;39.604;2023-01-25T05:46:38;152.85;;;34.95;;
52031;SDS011;38044;45.148;39.604;2023-01-25T05:49:04;222.48;;;38.00;;
52031;SDS011;38044;45.148;39.604;2023-01-25T05:51:30;159.70;;;34.85;;
52031;SDS011;38044;45.148;39.604;2023-01-25T05:53:56;120.57;;;33.72;;
52031;SDS011;38044;45.148;39.604;2023-01-25T05:56:22;165.65;;;38.60;;
52031;SDS011;38044;45.148;39.604;2023-01-25T05:58:52;144.55;;;36.40;;
52031;SDS011;38044;45.148;39.604;2023-01-25T06:01:19;132.40;;;34.63;;
52031;SDS011;38044;45.148;39.604;2023-01-25T06:03:46;166.32;;;39.08;;
52031;SDS011;38044;45.148;39.604;2023-01-25T06:06:12;203.82;;;37.28;;
52031;SDS011;38044;45.148;39.604;2023-01-25T06:08:38;142.02;;;36.13;;
52031;SDS011;38044;45.148;39.604;2023-01-25T06:11:07;154.82;;;34.92;;
52031;SDS011;38044;45.148;39.604;2023-01-25T06:13:34;151.60;;;31.75;;
52031;SDS011;38044;45.148;39.604;2023-01-25T06:16:00;180.35;;;35.47;;
52031;SDS011;38044;45.148;39.604;2023-01-25T06:18:27;139.90;;;32.88;;
52031;SDS011;38044;45.148;39.604;2023-01-25T06:20:58;140.48;;;36.58;;
52031;SDS011;38044;45.148;39.604;2023-01-25T06:23:24;118.45;;;34.58;;
52031;SDS011;38044;45.148;39.604;2023-01-25T06:26:00;134.48;;;32.70;;
52031;SDS011;38044;45.148;39.604;2023-01-25T06:28:29;127.32;;;34.33;;
52031;SDS011;38044;45.148;39.604;2023-01-25T06:30:56;165.55;;;35.05;;
52031;SDS011;38044;45.148;39.604;2023-01-25T06:33:28;129.40;;;33.20;;
52031;SDS011;38044;45.148;39.604;2023-01-25T06:35:57;143.15;;;36.42;;
52031;SDS011;38044;45.148;39.604;2023-01-25T06:38:24;139.20;;;32.40;;
52031;SDS011;38044;45.148;39.604;2023-01-25T06:40:50;119.00;;;33.63;;
52031;SDS011;38044;45.148;39.604;2023-01-25T06:43:16;148.40;;;35.72;;
52031;SDS011;38044;45.148;39.604;2023-01-25T06:45:41;149.23;;;35.03;;
52031;SDS011;38044;45.148;39.604;2023-01-25T06:48:07;160.23;;;34.63;;
52031;SDS011;38044;45.148;39.604;2023-01-25T06:50:33;179.23;;;36.63;;
52031;SDS011;38044;45.148;39.604;2023-01-25T06:52:59;124.70;;;37.63;;
52031;SDS011;38044;45.148;39.604;2023-01-25T06:55:25;121.85;;;36.92;;
52031;SDS011;38044;45.148;39.604;2023-01-25T06:57:50;101.22;;;31.42;;
52031;SDS011;38044;45.148;39.604;2023-01-25T07:00:16;83.45;;;32.17;;
52031;SDS011;38044;45.148;39.604;2023-01-25T07:02:43;83.93;;;31.65;;
52031;SDS011;38044;45.148;39.604;2023-01-25T07:05:08;90.65;;;31.48;;
52031;SDS011;38044;45.148;39.604;2023-01-25T07:07:34;90.30;;;31.73;;
52031;SDS011;38044;45.148;39.604;2023-01-25T07:10:00;87.95;;;33.03;;
52031;SDS011;38044;45.148;39.604;2023-01-25T07:12:29;72.05;;;33.95;;
52031;SDS011;38044;45.148;39.604;2023-01-25T07:14:55;98.25;;;33.50;;
52031;SDS011;38044;45.148;39.604;2023-01-25T07:17:21;94.68;;;34.40;;
52031;SDS011;38044;45.148;39.604;2023-01-25T07:19:47;128.02;;;34.35;;
52031;SDS011;38044;45.148;39.604;2023-01-25T07:22:13;103.90;;;33.38;;
52031;SDS011;38044;45.148;39.604;2023-01-25T07:24:38;172.60;;;34.90;;
52031;SDS011;38044;45.148;39.604;2023-01-25T07:27:04;163.90;;;34.13;;
52031;SDS011;38044;45.148;39.604;2023-01-25T07:29:30;146.57;;;35.38;;
52031;SDS011;38044;45.148;39.604;2023-01-25T07:31:56;128.55;;;37.10;;
52031;SDS011;38044;45.148;39.604;2023-01-25T07:34:21;113.75;;;38.13;;
52031;SDS011;38044;45.148;39.604;2023-01-25T07:36:47;86.22;;;35.05;;
52031;SDS011;38044;45.148;39.604;2023-01-25T07:39:13;102.72;;;39.65;;
52031;SDS011;38044;45.148;39.604;2023-01-25T07:41:39;92.63;;;34.40;;
52031;SDS011;38044;45.148;39.604;2023-01-25T07:44:05;85.93;;;34.50;;
52031;SDS011;38044;45.148;39.604;2023-01-25T07:46:31;81.03;;;35.28;;
52031;SDS011;38044;45.148;39.604;2023-01-25T07:48:57;80.20;;;36.83;;
52031;SDS011;38044;45.148;39.604;2023-01-25T07:51:25;78.97;;;34.80;;
52031;SDS011;38044;45.148;39.604;2023-01-25T07:53:59;86.07;;;36.83;;
52031;SDS011;38044;45.148;39.604;2023-01-25T07:56:30;69.53;;;31.85;;
52031;SDS011;38044;45.148;39.604;2023-01-25T07:58:59;84.97;;;37.20;;
52031;SDS011;38044;45.148;39.604;2023-01-25T08:01:29;85.03;;;35.60;;
52031;SDS011;38044;45.148;39.604;2023-01-25T08:03:59;82.05;;;36.58;;
52031;SDS011;38044;45.148;39.604;2023-01-25T08:06:27;83.30;;;36.10;;
52031;SDS011;38044;45.148;39.604;2023-01-25T08:09:04;72.38;;;31.05;;
52031;SDS011;38044;45.148;39.604;2023-01-25T08:11:38;63.30;;;30.92;;
52031;SDS011;38044;45.148;39.604;2023-01-25T08:14:05;76.43;;;33.17;;
52031;SDS011;38044;45.148;39.604;2023-01-25T08:16:32;73.13;;;31.20;;
52031;SDS011;38044;45.148;39.604;2023-01-25T08:18:59;63.78;;;29.10;;
52031;SDS011;38044;45.148;39.604;2023-01-25T08:21:26;65.38;;;30.08;;
52031;SDS011;38044;45.148;39.604;2023-01-25T08:23:57;66.07;;;29.00;;
52031;SDS011;38044;45.148;39.604;2023-01-25T08:26:24;62.58;;;27.98;;
52031;SDS011;38044;45.148;39.604;2023-01-25T08:28:50;68.70;;;29.42;;
52031;SDS011;38044;45.148;39.604;2023-01-25T08:31:20;65.70;;;29.83;;
52031;SDS011;38044;45.148;39.604;2023-01-25T08:33:48;63.22;;;28.80;;
52031;SDS011;38044;45.148;39.604;2023-01-25T08:36:15;62.90;;;28.80;;
52031;SDS011;38044;45.148;39.604;2023-01-25T08:38:43;58.85;;;28.20;;
52031;SDS011;38044;45.148;39.604;2023-01-25T08:41:15;53.35;;;28.17;;
52031;SDS011;38044;45.148;39.604;2023-01-25T08:43:43;65.97;;;26.80;;
52031;SDS011;38044;45.148;39.604;2023-01-25T08:46:11;53.03;;;28.48;;
52031;SDS011;38044;45.148;39.604;2023-01-25T08:48:38;54.88;;;26.42;;
52031;SDS011;38044;45.148;39.604;2023-01-25T08:51:06;49.78;;;25.90;;
52031;SDS011;38044;45.148;39.604;2023-01-25T08:53:33;50.95;;;25.33;;
52031;SDS011;38044;45.148;39.604;2023-01-25T08:56:03;51.00;;;26.23;;
52031;SDS011;38044;45.148;39.604;2023-01-25T08:58:33;41.65;;;24.58;;
52031;SDS011;38044;45.148;39.604;2023-01-25T09:01:04;40.47;;;23.90;;
52031;SDS011;38044;45.148;39.604;2023-01-25T09:03:40;46.83;;;25.15;;
52031;SDS011;38044;45.148;39.604;2023-01-25T09:06:08;44.05;;;24.77;;
52031;SDS011;38044;45.148;39.604;2023-01-25T09:08:35;44.55;;;24.65;;
52031;SDS011;38044;45.148;39.604;2023-01-25T09:11:06;41.08;;;25.10;;
52031;SDS011;38044;45.148;39.604;2023-01-25T09:13:33;43.08;;;23.83;;
52031;SDS011;38044;45.148;39.604;2023-01-25T09:16:03;40.55;;;23.42;;
52031;SDS011;38044;45.148;39.604;2023-01-25T09:18:31;52.70;;;24.48;;
52031;SDS011;38044;45.148;39.604;2023-01-25T09:20:58;41.55;;;23.35;;
52031;SDS011;38044;45.148;39.604;2023-01-25T09:23:24;41.55;;;24.85;;
52031;SDS011;38044;45.148;39.604;2023-01-25T09:26:00;60.58;;;35.45;;
52031;SDS011;38044;45.148;39.604;2023-01-25T09:28:27;61.47;;;32.90;;
52031;SDS011;38044;45.148;39.604;2023-01-25T09:31:03;60.30;;;33.08;;
52031;SDS011;38044;45.148;39.604;2023-01-25T09:33:32;56.92;;;32.45;;
52031;SDS011;38044;45.148;39.604;2023-01-25T09:36:00;55.13;;;32.05;;
52031;SDS011;38044;45.148;39.604;2023-01-25T09:38:26;54.75;;;32.05;;
52031;SDS011;38044;45.148;39.604;2023-01-25T09:43:47;53.55;;;31.85;;
52031;SDS011;38044;45.148;39.604;2023-01-25T09:54:37;53.25;;;32.28;;
52031;SDS011;38044;45.148;39.604;2023-01-25T09:57:25;54.45;;;32.25;;
52031;SDS011;38044;45.148;39.604;2023-01-25T09:59:57;49.55;;;30.73;;
52031;SDS011;38044;45.148;39.604;2023-01-25T10:05:12;55.40;;;31.02;;
52031;SDS011;38044;45.148;39.604;2023-01-25T10:10:40;51.35;;;29.92;;
52031;SDS011;38044;45.148;39.604;2023-01-25T10:13:11;56.13;;;31.50;;
52031;SDS011;38044;45.148;39.604;2023-01-25T10:15:46;51.10;;;30.17;;
52031;SDS011;38044;45.148;39.604;2023-01-25T10:18:18;59.00;;;32.38;;
52031;SDS011;38044;45.148;39.604;2023-01-25T10:20:49;55.45;;;32.15;;
52031;SDS011;38044;45.148;39.604;2023-01-25T10:24:24;59.47;;;31.08;;
52031;SDS011;38044;45.148;39.604;2023-01-25T10:26:31;56.22;;;33.55;;
52031;SDS011;38044;45.148;39.604;2023-01-25T10:32:21;59.03;;;35.67;;
52031;SDS011;38044;45.148;39.604;2023-01-25T10:34:52;59.28;;;35.72;;
52031;SDS011;38044;45.148;39.604;2023-01-25T10:37:21;56.85;;;34.33;;
52031;SDS011;38044;45.148;39.604;2023-01-25T10:42:57;53.08;;;31.20;;
52031;SDS011;38044;45.148;39.604;2023-01-25T10:45:32;57.97;;;32.40;;
52031;SDS011;38044;45.148;39.604;2023-01-25T10:48:02;55.95;;;32.80;;
52031;SDS011;38044;45.148;39.604;2023-01-25T10:53:30;62.75;;;30.38;;
52031;SDS011;38044;45.148;39.604;2023-01-25T10:56:02;57.75;;;31.23;;
52031;SDS011;38044;45.148;39.604;2023-01-25T10:58:43;53.75;;;31.52;;
52031;SDS011;38044;45.148;39.604;2023-01-25T11:01:35;55.78;;;30.98;;
52031;SDS011;38044;45.148;39.604;2023-01-25T11:04:00;52.47;;;29.48;;
52031;SDS011;38044;45.148;39.604;2023-01-25T11:06:28;51.35;;;28.77;;
52031;SDS011;38044;45.148;39.604;2023-01-25T11:08:56;53.10;;;28.40;;
52031;SDS011;38044;45.148;39.604;2023-01-25T11:13:49;52.40;;;28.10;;
52031;SDS011;38044;45.148;39.604;2023-01-25T11:19:22;46.78;;;26.60;;
52031;SDS011;38044;45.148;39.604;2023-01-25T11:21:52;48.67;;;27.25;;
52031;SDS011;38044;45.148;39.604;2023-01-25T11:24:19;49.13;;;25.73;;
52031;SDS011;38044;45.148;39.604;2023-01-25T11:26:45;55.83;;;27.45;;
52031;SDS011;38044;45.148;39.604;2023-01-25T11:29:12;48.15;;;26.45;;
52031;SDS011;38044;45.148;39.604;2023-01-25T11:31:45;46.35;;;25.77;;
52031;SDS011;38044;45.148;39.604;2023-01-25T11:34:20;48.28;;;26.67;;
52031;SDS011;38044;45.148;39.604;2023-01-25T11:42:36;59.60;;;27.77;;
52031;SDS011;38044;45.148;39.604;2023-01-25T11:48:29;47.33;;;26.38;;
52031;SDS011;38044;45.148;39.604;2023-01-25T11:51:07;50.15;;;25.15;;
52031;SDS011;38044;45.148;39.604;2023-01-25T11:59:50;47.00;;;25.50;;
52031;SDS011;38044;45.148;39.604;2023-01-25T12:02:14;44.30;;;24.77;;
52031;SDS011;38044;45.148;39.604;2023-01-25T12:13:08;45.33;;;23.55;;
52031;SDS011;38044;45.148;39.604;2023-01-25T12:26:54;48.70;;;26.00;;
52031;SDS011;38044;45.148;39.604;2023-01-25T12:29:31;55.80;;;27.05;;
52031;SDS011;38044;45.148;39.604;2023-01-25T12:32:07;49.20;;;25.75;;
52031;SDS011;38044;45.148;39.604;2023-01-25T12:34:42;51.22;;;26.27;;
52031;SDS011;38044;45.148;39.604;2023-01-25T12:39:50;47.53;;;25.80;;
52031;SDS011;38044;45.148;39.604;2023-01-25T12:42:25;49.42;;;24.42;;
52031;SDS011;38044;45.148;39.604;2023-01-25T12:48:13;48.97;;;23.67;;
52031;SDS011;38044;45.148;39.604;2023-01-25T12:50:53;52.25;;;25.30;;
52031;SDS011;38044;45.148;39.604;2023-01-25T12:53:25;52.65;;;25.88;;
52031;SDS011;38044;45.148;39.604;2023-01-25T12:55:54;53.70;;;25.60;;
52031;SDS011;38044;45.148;39.604;2023-01-25T13:09:03;43.35;;;21.50;;
52031;SDS011;38044;45.148;39.604;2023-01-25T13:11:41;41.22;;;21.05;;
52031;SDS011;38044;45.148;39.604;2023-01-25T13:16:41;41.05;;;21.77;;
52031;SDS011;38044;45.148;39.604;2023-01-25T13:21:46;32.55;;;16.13;;
52031;SDS011;38044;45.148;39.604;2023-01-25T13:29:41;27.50;;;15.02;;
52031;SDS011;38044;45.148;39.604;2023-01-25T13:39:57;32.80;;;15.48;;
52031;SDS011;38044;45.148;39.604;2023-01-25T13:42:33;28.73;;;14.45;;
52031;SDS011;38044;45.148;39.604;2023-01-25T13:45:02;44.97;;;19.70;;
52031;SDS011;38044;45.148;39.604;2023-01-25T13:47:38;34.50;;;17.05;;
52031;SDS011;38044;45.148;39.604;2023-01-25T13:50:21;30.75;;;15.45;;
52031;SDS011;38044;45.148;39.604;2023-01-25T13:52:57;32.75;;;16.05;;
52031;SDS011;38044;45.148;39.604;2023-01-25T13:55:28;27.98;;;14.93;;
52031;SDS011;38044;45.148;39.604;2023-01-25T13:58:09;28.38;;;15.05;;
52031;SDS011;38044;45.148;39.604;2023-01-25T14:00:47;34.70;;;15.55;;
52031;SDS011;38044;45.148;39.604;2023-01-25T14:03:48;33.33;;;16.80;;
52031;SDS011;38044;45.148;39.604;2023-01-25T14:06:24;37.90;;;17.95;;
52031;SDS011;38044;45.148;39.604;2023-01-25T14:08:53;36.53;;;18.30;;
52031;SDS011;38044;45.148;39.604;2023-01-25T14:11:30;40.60;;;21.15;;
52031;SDS011;38044;45.148;39.604;2023-01-25T14:16:27;45.60;;;24.48;;
52031;SDS011;38044;45.148;39.604;2023-01-25T14:18:54;51.92;;;26.10;;
52031;SDS011;38044;45.148;39.604;2023-01-25T14:21:22;50.55;;;25.95;;
52031;SDS011;38044;45.148;39.604;2023-01-25T14:23:48;48.22;;;25.85;;
52031;SDS011;38044;45.148;39.604;2023-01-25T14:28:49;47.97;;;23.92;;
52031;SDS011;38044;45.148;39.604;2023-01-25T14:31:23;46.00;;;22.65;;
52031;SDS011;38044;45.148;39.604;2023-01-25T14:33:52;46.53;;;23.05;;
52031;SDS011;38044;45.148;39.604;2023-01-25T14:36:22;43.60;;;23.58;;
52031;SDS011;38044;45.148;39.604;2023-01-25T14:38:52;49.00;;;24.02;;
52031;SDS011;38044;45.148;39.604;2023-01-25T14:44:00;69.20;;;29.55;;
52031;SDS011;38044;45.148;39.604;2023-01-25T14:46:34;69.47;;;31.58;;
52031;SDS011;38044;45.148;39.604;2023-01-25T14:51:49;70.55;;;31.48;;
52031;SDS011;38044;45.148;39.604;2023-01-25T14:54:26;70.63;;;30.67;;
52031;SDS011;38044;45.148;39.604;2023-01-25T14:57:39;82.03;;;34.35;;
52031;SDS011;38044;45.148;39.604;2023-01-25T14:59:52;94.78;;;40.08;;
52031;SDS011;38044;45.148;39.604;2023-01-25T15:02:39;102.03;;;43.53;;
52031;SDS011;38044;45.148;39.604;2023-01-25T15:05:22;96.13;;;42.65;;
52031;SDS011;38044;45.148;39.604;2023-01-25T15:11:01;100.40;;;42.25;;
52031;SDS011;38044;45.148;39.604;2023-01-25T15:13:45;90.90;;;40.63;;
52031;SDS011;38044;45.148;39.604;2023-01-25T15:16:12;101.57;;;43.70;;
52031;SDS011;38044;45.148;39.604;2023-01-25T15:21:19;105.90;;;46.17;;
52031;SDS011;38044;45.148;39.604;2023-01-25T15:23:49;95.03;;;43.40;;
52031;SDS011;38044;45.148;39.604;2023-01-25T15:26:21;95.70;;;42.80;;
52031;SDS011;38044;45.148;39.604;2023-01-25T15:28:49;103.00;;;45.95;;
52031;SDS011;38044;45.148;39.604;2023-01-25T15:31:17;106.72;;;46.47;;
52031;SDS011;38044;45.148;39.604;2023-01-25T15:33:46;97.22;;;47.08;;
52031;SDS011;38044;45.148;39.604;2023-01-25T15:36:12;98.85;;;47.58;;
52031;SDS011;38044;45.148;39.604;2023-01-25T15:38:39;112.53;;;49.40;;
52031;SDS011;38044;45.148;39.604;2023-01-25T15:41:05;113.97;;;50.90;;
52031;SDS011;38044;45.148;39.604;2023-01-25T15:43:31;102.20;;;49.85;;
52031;SDS011;38044;45.148;39.604;2023-01-25T15:45:57;108.38;;;48.67;;
52031;SDS011;38044;45.148;39.604;2023-01-25T15:48:37;114.88;;;50.13;;
52031;SDS011;38044;45.148;39.604;2023-01-25T15:51:10;139.90;;;58.33;;
52031;SDS011;38044;45.148;39.604;2023-01-25T15:53:36;130.70;;;57.13;;
52031;SDS011;38044;45.148;39.604;2023-01-25T15:56:04;150.35;;;59.22;;
52031;SDS011;38044;45.148;39.604;2023-01-25T15:58:36;146.07;;;56.58;;
52031;SDS011;38044;45.148;39.604;2023-01-25T16:01:04;128.13;;;54.38;;
52031;SDS011;38044;45.148;39.604;2023-01-25T16:03:30;130.77;;;53.72;;
52031;SDS011;38044;45.148;39.604;2023-01-25T16:05:58;127.63;;;55.72;;
52031;SDS011;38044;45.148;39.604;2023-01-25T16:08:26;127.60;;;53.97;;
52031;SDS011;38044;45.148;39.604;2023-01-25T16:10:52;128.43;;;57.38;;
52031;SDS011;38044;45.148;39.604;2023-01-25T16:13:18;145.65;;;62.80;;
52031;SDS011;38044;45.148;39.604;2023-01-25T16:15:47;153.50;;;67.88;;
52031;SDS011;38044;45.148;39.604;2023-01-25T16:18:15;152.30;;;65.43;;
52031;SDS011;38044;45.148;39.604;2023-01-25T16:20:41;151.02;;;66.88;;
52031;SDS011;38044;45.148;39.604;2023-01-25T16:23:08;155.75;;;65.80;;
52031;SDS011;38044;45.148;39.604;2023-01-25T16:25:36;147.02;;;64.82;;
52031;SDS011;38044;45.148;39.604;2023-01-25T16:28:06;139.13;;;63.78;;